Time;durP1;ratioP1;P1;durP2;ratioP2;P2;SDS_P1;SDS_P2;PMS_P1;PMS_P2;Temp;Humidity;BMP_temperature;BMP_pressure;BME280_temperature;BME280_humidity;BME280_pressure;Samples;Min_cycle;Max_cycle;Signal;HPM_P1;HPM_P2
2021/08/18 00:01:04;;;;;;;1999.90;999.90;;;;;;;9.05;50.58;100902.63;5060520;27;96930;-74
2021/08/18 00:03:32;;;;;;;1999.90;999.90;;;;;;;9.05;50.60;100907.03;5061304;27;97529;-73
2021/08/18 00:06:00;;;;;;;1999.90;999.90;;;;;;;9.04;50.58;100905.25;5064550;27;100332;-72
2021/08/18 00:08:28;;;;;;;1999.90;999.90;;;;;;;9.02;50.68;100896.34;5063397;27;97178;-73
2021/08/18 00:10:56;;;;;;;1999.90;999.90;;;;;;;9.02;50.80;100907.81;5066487;27;97169;-72
2021/08/18 00:13:25;;;;;;;1999.90;999.90;;;;;;;8.99;50.87;100909.50;5064584;27;97722;-73
2021/08/18 00:15:56;;;;;;;1999.90;999.90;;;;;;;8.97;50.69;100903.25;5045886;27;100766;-73
2021/08/18 00:18:24;;;;;;;1999.90;999.90;;;;;;;8.95;50.87;100904.97;5060699;27;97377;-73
2021/08/18 00:20:52;;;;;;;1999.90;999.90;;;;;;;8.92;51.08;100915.47;5065526;27;98266;-73
2021/08/18 00:23:20;;;;;;;1999.90;999.90;;;;;;;8.90;50.85;100918.09;5066004;27;99275;-73
2021/08/18 00:25:48;;;;;;;1999.90;999.90;;;;;;;8.90;51.00;100909.22;5064739;27;98536;-73
2021/08/18 00:28:17;;;;;;;1999.90;999.90;;;;;;;8.89;51.16;100912.75;5042955;27;97449;-72
2021/08/18 00:30:45;;;;;;;1999.90;999.90;;;;;;;8.85;51.23;100908.19;5064941;27;97284;-73
2021/08/18 00:33:14;;;;;;;1999.90;999.90;;;;;;;8.82;51.08;100906.31;5065887;27;97813;-72
2021/08/18 00:35:42;;;;;;;1999.90;999.90;;;;;;;8.80;51.21;100909.81;5064847;27;99167;-73
2021/08/18 00:38:10;;;;;;;1999.90;999.90;;;;;;;8.74;51.36;100906.97;5054561;27;98866;-73
2021/08/18 00:40:38;;;;;;;1999.90;999.90;;;;;;;8.70;51.44;100905.06;5058966;27;97609;-72
2021/08/18 00:43:06;;;;;;;1999.90;999.90;;;;;;;8.66;51.47;100919.13;5057758;27;98194;-73
2021/08/18 00:45:35;;;;;;;1999.90;999.90;;;;;;;8.64;51.79;100920.81;5053518;27;100429;-74
2021/08/18 00:48:03;;;;;;;1999.90;999.90;;;;;;;8.58;51.67;100920.63;5057659;27;97713;-73
2021/08/18 00:50:33;;;;;;;1999.90;999.90;;;;;;;8.57;51.68;100911.75;5058330;27;97631;-73
2021/08/18 00:53:01;;;;;;;1999.90;999.90;;;;;;;8.53;51.90;100906.31;5056092;27;97460;-73
2021/08/18 00:55:29;;;;;;;1999.90;999.90;;;;;;;8.50;51.76;100906.19;5057894;27;97743;-73
2021/08/18 00:57:58;;;;;;;1999.90;999.90;;;;;;;8.49;51.64;100900.03;5060176;27;97995;-73
2021/08/18 01:00:28;;;;;;;1999.90;999.90;;;;;;;8.46;51.79;100906.94;5064681;27;97418;-73
2021/08/18 01:02:57;;;;;;;1999.90;999.90;;;;;;;8.44;51.77;100904.22;5063363;27;99248;-72
2021/08/18 01:05:28;;;;;;;1999.90;999.90;;;;;;;8.41;51.86;100911.19;5065173;27;97775;-73
2021/08/18 01:08:00;;;;;;;1999.90;999.90;;;;;;;8.39;52.08;100905.84;5063822;27;97748;-74
2021/08/18 01:10:31;;;;;;;1999.90;999.90;;;;;;;8.42;51.89;100907.69;5045020;27;97832;-72
2021/08/18 01:13:00;;;;;;;1999.90;999.90;;;;;;;8.45;51.61;100899.81;5061121;27;99398;-73
2021/08/18 01:15:29;;;;;;;1999.90;999.90;;;;;;;8.49;51.73;100896.47;5062639;27;98999;-73
2021/08/18 01:18:00;;;;;;;1999.90;999.90;;;;;;;8.50;51.76;100901.81;5062970;27;97136;-72
2021/08/18 01:20:30;;;;;;;1999.90;999.90;;;;;;;8.52;51.63;100905.41;5063042;27;97807;-72
2021/08/18 01:23:01;;;;;;;1999.90;999.90;;;;;;;8.54;51.43;100903.72;5064630;27;97643;-72
2021/08/18 01:25:29;;;;;;;1999.90;999.90;;;;;;;8.55;52.10;100899.31;5064080;27;98795;-73
2021/08/18 01:28:00;;;;;;;1999.90;999.90;;;;;;;8.57;51.91;100897.59;5066476;27;97683;-75
2021/08/18 01:30:30;;;;;;;1999.90;999.90;;;;;;;8.59;51.75;100901.19;5066541;27;97107;-73
2021/08/18 01:32:59;;;;;;;1999.90;999.90;;;;;;;8.62;51.83;100893.34;5055864;27;97435;-72
2021/08/18 01:35:31;;;;;;;1999.90;999.90;;;;;;;8.64;51.85;100897.81;5061394;27;99071;-73
2021/08/18 01:38:01;;;;;;;1999.90;999.90;;;;;;;8.65;51.90;100894.34;5059235;27;96867;-74
2021/08/18 01:40:29;;;;;;;1999.90;999.90;;;;;;;8.68;51.93;100893.50;5061327;27;97303;-73
2021/08/18 01:42:58;;;;;;;1999.90;999.90;;;;;;;8.70;51.80;100899.75;5058896;27;98630;-73
2021/08/18 01:45:29;;;;;;;1999.90;999.90;;;;;;;8.68;51.97;100898.81;5061367;27;97598;-74
2021/08/18 01:47:58;;;;;;;1999.90;999.90;;;;;;;8.62;52.28;100899.56;5059843;27;97957;-73
2021/08/18 01:50:26;;;;;;;1999.90;999.90;;;;;;;8.57;52.29;100895.84;5038201;27;98107;-73
2021/08/18 01:52:55;;;;;;;1999.90;999.90;;;;;;;8.57;52.14;100893.19;5065130;27;97297;-73
2021/08/18 01:55:24;;;;;;;1999.90;999.90;;;;;;;8.57;52.21;100893.19;5060366;27;98509;-72
2021/08/18 01:57:52;;;;;;;1999.90;999.90;;;;;;;8.56;52.40;100880.78;5060716;27;97002;-72
2021/08/18 02:00:20;;;;;;;1999.90;999.90;;;;;;;8.53;52.65;100885.97;5059066;27;97468;-73
2021/08/18 02:02:50;;;;;;;1999.90;999.90;;;;;;;8.55;52.28;100886.06;5058366;27;98931;-72
2021/08/18 02:05:19;;;;;;;1999.90;999.90;;;;;;;8.52;52.57;100880.63;5063001;27;100672;-72
2021/08/18 02:07:47;;;;;;;1999.90;999.90;;;;;;;8.52;52.63;100870.94;5064362;27;97650;-72
2021/08/18 02:10:17;;;;;;;1999.90;999.90;;;;;;;8.54;52.41;100877.19;5067754;27;97653;-74
2021/08/18 02:12:45;;;;;;;1999.90;999.90;;;;;;;8.56;52.63;100877.22;5067647;27;97845;-73
2021/08/18 02:15:15;;;;;;;1999.90;999.90;;;;;;;8.58;52.37;100875.53;5065138;27;99201;-73
2021/08/18 02:17:44;;;;;;;1999.90;999.90;;;;;;;8.61;52.44;100873.84;5057895;27;97327;-73
2021/08/18 02:20:15;;;;;;;1999.90;999.90;;;;;;;8.63;52.51;100874.81;5058545;27;98374;-71
2021/08/18 02:22:44;;;;;;;1999.90;999.90;;;;;;;8.66;52.42;100871.38;5060492;27;99502;-74
2021/08/18 02:25:12;;;;;;;1999.90;999.90;;;;;;;8.67;52.33;100866.09;5059097;27;98534;-74
2021/08/18 02:27:41;;;;;;;1999.90;999.90;;;;;;;8.71;52.33;100869.75;5059743;27;97666;-72
2021/08/18 02:30:11;;;;;;;1999.90;999.90;;;;;;;8.75;52.28;100861.91;5051061;27;97302;-74
2021/08/18 02:32:39;;;;;;;1999.90;999.90;;;;;;;8.78;52.31;100869.06;5051496;27;100631;-72
2021/08/18 02:35:09;;;;;;;1999.90;999.90;;;;;;;8.81;52.20;100869.16;5060485;27;97915;-73
2021/08/18 02:37:38;;;;;;;1999.90;999.90;;;;;;;8.84;52.52;100869.25;5057336;27;96825;-73
2021/08/18 02:40:09;;;;;;;1999.90;999.90;;;;;;;8.85;52.15;100860.44;5056749;27;97756;-73
2021/08/18 02:42:37;;;;;;;1999.90;999.90;;;;;;;8.87;52.30;100864.03;5057152;27;99507;-73
2021/08/18 02:45:06;;;;;;;1999.90;999.90;;;;;;;8.90;52.42;100862.34;5059711;27;98147;-72
2021/08/18 02:47:35;;;;;;;1999.90;999.90;;;;;;;8.90;52.41;100864.09;5061291;27;97062;-73
2021/08/18 02:50:04;;;;;;;1999.90;999.90;;;;;;;8.93;52.51;100866.88;5037610;27;97250;-73
2021/08/18 02:52:32;;;;;;;1999.90;999.90;;;;;;;8.94;52.35;100858.94;5041933;27;99399;-73
2021/08/18 02:55:02;;;;;;;1999.90;999.90;;;;;;;8.96;52.22;100857.25;5060400;27;99108;-73
2021/08/18 02:57:30;;;;;;;1999.90;999.90;;;;;;;8.98;52.37;100859.94;5055655;27;98177;-73
2021/08/18 02:59:58;;;;;;;1999.90;999.90;;;;;;;8.99;52.30;100853.75;5040096;27;99011;-73
2021/08/18 03:02:27;;;;;;;1999.90;999.90;;;;;;;9.00;52.29;100856.47;5060329;27;99591;-73
2021/08/18 03:04:56;;;;;;;1999.90;999.90;;;;;;;9.02;52.27;100848.56;5058719;27;99612;-73
2021/08/18 03:07:24;;;;;;;1999.90;999.90;;;;;;;9.05;52.24;100856.59;5058088;27;97957;-74
2021/08/18 03:09:52;;;;;;;1999.90;999.90;;;;;;;9.09;52.11;100853.19;5059216;27;97549;-73
2021/08/18 03:12:22;;;;;;;1999.90;999.90;;;;;;;9.12;52.26;100853.25;5040041;27;99328;-73
2021/08/18 03:14:50;;;;;;;1999.90;999.90;;;;;;;9.16;52.00;100856.06;5058178;27;99655;-72
2021/08/18 03:17:18;;;;;;;1999.90;999.90;;;;;;;9.20;51.81;100846.41;5057840;27;97852;-74
2021/08/18 03:19:46;;;;;;;1999.90;999.90;;;;;;;9.23;51.84;100847.38;5061346;27;98079;-73
2021/08/18 03:22:14;;;;;;;1999.90;999.90;;;;;;;9.29;51.74;100846.66;5056918;27;98487;-73
2021/08/18 03:24:42;;;;;;;1999.90;999.90;;;;;;;9.33;51.75;100852.94;5063834;27;99807;-73
2021/08/18 03:27:10;;;;;;;1999.90;999.90;;;;;;;9.34;51.62;100860.94;5057485;27;97381;-73
2021/08/18 03:29:40;;;;;;;1999.90;999.90;;;;;;;9.36;51.75;100861.91;5061192;27;97315;-73
2021/08/18 03:32:09;;;;;;;1999.90;999.90;;;;;;;9.37;51.74;100862.81;5059017;27;98579;-72
2021/08/18 03:34:37;;;;;;;1999.90;999.90;;;;;;;9.34;52.13;100865.34;5056171;27;101200;-72
2021/08/18 03:37:05;;;;;;;1999.90;999.90;;;;;;;9.33;51.98;100867.13;5035677;27;97756;-71
2021/08/18 03:39:33;;;;;;;1999.90;999.90;;;;;;;9.31;52.00;100862.63;5059071;27;97341;-75
2021/08/18 03:42:01;;;;;;;1999.90;999.90;;;;;;;9.31;52.00;100863.53;5056767;27;97922;-72
2021/08/18 03:44:29;;;;;;;1999.90;999.90;;;;;;;9.60;52.41;100856.38;5055072;27;97046;-72
2021/08/18 03:46:59;;;;;;;1999.90;999.90;;;;;;;9.44;52.74;100855.06;5059808;27;97150;-75
2021/08/18 03:49:27;;;;;;;1999.90;999.90;;;;;;;9.41;52.83;100849.63;5056710;27;98216;-73
2021/08/18 03:51:56;;;;;;;1999.90;999.90;;;;;;;9.44;52.66;100859.44;5056928;27;97070;-73
2021/08/18 03:54:24;;;;;;;1999.90;999.90;;;;;;;9.43;52.71;100857.63;5057404;27;101217;-72
2021/08/18 03:56:52;;;;;;;1999.90;999.90;;;;;;;9.43;52.81;100861.19;5058585;27;96894;-74
2021/08/18 03:59:20;;;;;;;1999.90;999.90;;;;;;;9.45;52.53;100851.53;5053728;27;98990;-73
2021/08/18 04:01:48;;;;;;;1999.90;999.90;;;;;;;9.48;52.53;100851.63;5055725;27;101713;-72
2021/08/18 04:04:18;;;;;;;1999.90;999.90;;;;;;;9.51;52.30;100858.78;5057674;27;99210;-73
2021/08/18 04:06:46;;;;;;;1999.90;999.90;;;;;;;9.51;52.41;100850.81;5057841;27;97821;-73
2021/08/18 04:09:14;;;;;;;1999.90;999.90;;;;;;;9.54;52.34;100862.41;5057332;27;97861;-73
2021/08/18 04:11:42;;;;;;;1999.90;999.90;;;;;;;9.79;52.42;100856.88;5055075;27;99367;-72
2021/08/18 04:14:11;;;;;;;1999.90;999.90;;;;;;;9.67;52.63;100864.53;5039834;27;99197;-72
2021/08/18 04:16:39;;;;;;;1999.90;999.90;;;;;;;9.66;52.68;100864.50;5056655;27;98580;-73
2021/08/18 04:19:07;;;;;;;1999.90;999.90;;;;;;;9.65;52.59;100863.59;5063045;27;97739;-73
2021/08/18 04:21:37;;;;;;;1999.90;999.90;;;;;;;9.67;52.42;100869.84;5056687;27;98937;-72
2021/08/18 04:24:05;;;;;;;1999.90;999.90;;;;;;;9.93;52.42;100866.13;5056018;27;98823;-71
2021/08/18 04:26:34;;;;;;;1999.90;999.90;;;;;;;9.78;52.63;100857.75;5060285;27;98724;-73
2021/08/18 04:29:02;;;;;;;1999.90;999.90;;;;;;;9.75;52.56;100863.00;5054449;27;98320;-73
2021/08/18 04:31:30;;;;;;;1999.90;999.90;;;;;;;9.74;52.56;100855.88;5057068;27;98836;-73
2021/08/18 04:33:58;;;;;;;1999.90;999.90;;;;;;;9.71;52.62;100866.44;5050251;27;99716;-73
2021/08/18 04:36:26;;;;;;;1999.90;999.90;;;;;;;9.68;52.71;100857.47;5053991;27;97762;-74
2021/08/18 04:38:56;;;;;;;1999.90;999.90;;;;;;;9.67;52.58;100864.53;5052233;27;97890;-74
2021/08/18 04:41:24;;;;;;;1999.90;999.90;;;;;;;9.67;52.62;100867.19;5037896;27;101275;-75
2021/08/18 04:43:52;;;;;;;1999.90;999.90;;;;;;;9.67;52.53;100869.84;5052842;27;97772;-74
2021/08/18 04:46:20;;;;;;;1999.90;999.90;;;;;;;9.68;52.63;100861.00;5055092;27;98689;-74
2021/08/18 04:48:49;;;;;;;1999.90;999.90;;;;;;;9.67;52.59;100856.56;5054921;27;98127;-74
2021/08/18 04:51:17;;;;;;;1999.90;999.90;;;;;;;9.69;52.59;100864.56;5055858;27;98255;-74
2021/08/18 04:53:45;;;;;;;1999.90;999.90;;;;;;;9.70;52.32;100869.94;5056594;27;97299;-74
2021/08/18 04:56:14;;;;;;;1999.90;999.90;;;;;;;9.74;52.45;100865.59;5056178;27;97799;-74
2021/08/18 04:58:42;;;;;;;1999.90;999.90;;;;;;;9.75;52.59;100868.31;5057925;27;97648;-74
2021/08/18 05:01:09;;;;;;;1999.90;999.90;;;;;;;10.07;52.58;100861.13;5060842;27;97671;-75
2021/08/18 05:03:37;;;;;;;1999.90;999.90;;;;;;;9.89;53.02;100863.31;5052650;27;99064;-74
2021/08/18 05:06:05;;;;;;;1999.90;999.90;;;;;;;9.88;52.94;100866.88;5054612;27;97397;-75
2021/08/18 05:08:33;;;;;;;1999.90;999.90;;;;;;;9.87;52.94;100863.28;5051612;27;97136;-74
2021/08/18 05:11:01;;;;;;;1999.90;999.90;;;;;;;9.90;52.95;100860.72;5055875;27;100545;-75
2021/08/18 05:13:30;;;;;;;1999.90;999.90;;;;;;;9.90;52.81;100857.16;5056142;27;99246;-74
2021/08/18 05:15:58;;;;;;;1999.90;999.90;;;;;;;9.91;52.92;100857.22;5051070;27;98558;-75
2021/08/18 05:18:25;;;;;;;1999.90;999.90;;;;;;;9.92;52.78;100866.97;5054873;27;98350;-74
2021/08/18 05:20:54;;;;;;;1999.90;999.90;;;;;;;9.94;52.97;100864.34;5057211;27;99187;-74
2021/08/18 05:23:22;;;;;;;1999.90;999.90;;;;;;;9.94;52.62;100865.25;5055147;27;99251;-75
2021/08/18 05:25:49;;;;;;;1999.90;999.90;;;;;;;9.95;52.78;100874.13;5054694;27;98249;-75
2021/08/18 05:28:18;;;;;;;1999.90;999.90;;;;;;;9.95;53.17;100863.50;5056454;27;97056;-75
2021/08/18 05:30:47;;;;;;;1999.90;999.90;;;;;;;9.95;52.92;100869.72;5057290;27;99196;-74
2021/08/18 05:33:15;;;;;;;1999.90;999.90;;;;;;;9.96;52.79;100862.63;5038073;27;99292;-74
2021/08/18 05:35:43;;;;;;;1999.90;999.90;;;;;;;9.99;52.80;100868.91;5052439;27;97934;-74
2021/08/18 05:38:11;;;;;;;1999.90;999.90;;;;;;;10.04;52.77;100872.59;5056054;27;97786;-75
2021/08/18 05:40:39;;;;;;;1999.90;999.90;;;;;;;10.07;52.72;100872.66;5055155;27;97817;-74
2021/08/18 05:43:06;;;;;;;1999.90;999.90;;;;;;;10.07;52.86;100875.31;5048302;27;100918;-75
2021/08/18 05:45:34;;;;;;;1999.90;999.90;;;;;;;10.04;52.99;100877.91;5053354;27;97500;-75
2021/08/18 05:48:04;;;;;;;1999.90;999.90;;;;;;;10.03;53.00;100861.91;5052276;27;98853;-75
2021/08/18 05:50:31;;;;;;;1999.90;999.90;;;;;;;10.04;52.94;100867.28;5057335;27;97933;-74
2021/08/18 05:52:59;;;;;;;1999.90;999.90;;;;;;;10.07;52.92;100862.03;5055289;27;99538;-75
2021/08/18 05:55:27;;;;;;;1999.90;999.90;;;;;;;10.10;52.96;100858.56;5037226;27;100378;-75
2021/08/18 05:57:55;;;;;;;1999.90;999.90;;;;;;;10.12;52.94;100857.72;5036972;27;98310;-74
2021/08/18 06:00:23;;;;;;;1999.90;999.90;;;;;;;10.15;53.17;100864.88;5037669;27;100565;-74
2021/08/18 06:02:51;;;;;;;1999.90;999.90;;;;;;;10.17;52.83;100864.03;5044879;27;100791;-74
2021/08/18 06:05:20;;;;;;;1999.90;999.90;;;;;;;10.20;52.97;100865.88;5051719;27;98459;-77
2021/08/18 06:07:48;;;;;;;1999.90;999.90;;;;;;;10.23;52.98;100864.19;5056305;27;97493;-76
2021/08/18 06:10:16;;;;;;;1999.90;999.90;;;;;;;10.53;53.25;100865.78;5055088;27;97948;-75
2021/08/18 06:12:44;;;;;;;1999.90;999.90;;;;;;;10.40;53.59;100851.28;5033546;27;99270;-74
2021/08/18 06:15:12;;;;;;;1999.90;999.90;;;;;;;10.37;53.73;100867.19;5053344;27;99346;-75
2021/08/18 06:17:40;;;;;;;1999.90;999.90;;;;;;;10.35;53.86;100862.69;5057561;27;97923;-74
2021/08/18 06:20:09;;;;;;;1999.90;999.90;;;;;;;10.34;53.62;100867.09;5056728;27;98077;-74
2021/08/18 06:22:38;;;;;;;1999.90;999.90;;;;;;;10.33;53.73;100881.28;5044914;27;100476;-74
2021/08/18 06:25:07;;;;;;;1999.90;999.90;;;;;;;10.33;53.67;100872.38;5059902;27;98042;-75
2021/08/18 06:27:34;;;;;;;1999.90;999.90;;;;;;;10.36;53.55;100876.00;5062421;27;97129;-75
2021/08/18 06:30:03;;;;;;;1999.90;999.90;;;;;;;10.33;53.59;100867.97;5034158;27;99040;-74
2021/08/18 06:32:31;;;;;;;1999.90;999.90;;;;;;;10.35;53.43;100868.00;5061432;27;98727;-74
2021/08/18 06:34:59;;;;;;;1999.90;999.90;;;;;;;10.33;53.47;100864.41;5058267;27;99044;-74
2021/08/18 06:37:39;;;;;;;1999.90;999.90;;;;;;;10.40;53.06;100859.25;5059481;27;97023;-76
2021/08/18 06:40:08;;;;;;;1999.90;999.90;;;;;;;10.45;53.23;100852.31;5056330;27;99424;-75
2021/08/18 06:42:39;;;;;;;1999.90;999.90;;;;;;;10.50;53.51;100852.44;5060223;27;98410;-74
2021/08/18 06:45:08;;;;;;;1999.90;999.90;;;;;;;10.53;53.32;100847.16;5058186;27;99268;-76
2021/08/18 06:47:36;;;;;;;1999.90;999.90;;;;;;;10.56;53.35;100847.22;5036384;27;98133;-74
2021/08/18 06:50:04;;;;;;;1999.90;999.90;;;;;;;10.58;53.41;100850.81;5040438;27;100634;-77
2021/08/18 06:52:33;;;;;;;1999.90;999.90;;;;;;;10.61;53.42;100851.78;5058161;27;99255;-77
2021/08/18 06:55:02;;;;;;;1999.90;999.90;;;;;;;10.66;53.30;100867.88;5057594;27;97188;-75
2021/08/18 06:57:29;;;;;;;1999.90;999.90;;;;;;;10.68;53.18;100864.38;5058888;27;97534;-74
2021/08/18 06:59:57;;;;;;;1999.90;999.90;;;;;;;10.71;53.21;100863.53;5058736;27;99271;-78
2021/08/18 07:02:25;;;;;;;1999.90;999.90;;;;;;;10.71;53.46;100858.22;5071494;27;99381;-77
2021/08/18 07:04:53;;;;;;;1999.90;999.90;;;;;;;10.76;53.26;100861.88;5053519;27;98038;-72
2021/08/18 07:07:21;;;;;;;1999.90;999.90;;;;;;;10.77;53.46;100858.34;5038488;27;97957;-74
2021/08/18 07:09:49;;;;;;;1999.90;999.90;;;;;;;10.79;53.43;100856.63;5056383;27;99504;-74
2021/08/18 07:12:20;;;;;;;1999.90;999.90;;;;;;;10.82;53.10;100862.00;5035564;27;98179;-74
2021/08/18 07:14:48;;;;;;;1999.90;999.90;;;;;;;10.89;53.22;100858.59;5055623;27;97388;-75
2021/08/18 07:17:16;;;;;;;1999.90;999.90;;;;;;;10.89;53.69;100858.59;5061543;27;97127;-76
2021/08/18 07:19:44;;;;;;;1999.90;999.90;;;;;;;10.93;53.62;100852.47;5050293;27;97181;-74
2021/08/18 07:22:11;;;;;;;1999.90;999.90;;;;;;;11.05;53.33;100855.38;5051808;27;97969;-76
2021/08/18 07:24:39;;;;;;;1999.90;999.90;;;;;;;11.11;53.04;100860.84;5056397;27;97965;-74
2021/08/18 07:27:07;;;;;;;1999.90;999.90;;;;;;;11.19;53.07;100851.25;5055351;27;96860;-75
2021/08/18 07:29:36;;;;;;;1999.90;999.90;;;;;;;11.24;53.01;100852.22;5050169;27;98704;-74
2021/08/18 07:32:05;;;;;;;1999.90;999.90;;;;;;;11.29;52.83;100839.91;5061604;27;98700;-76
2021/08/18 07:34:33;;;;;;;1999.90;999.90;;;;;;;11.37;52.79;100851.66;5044950;27;97027;-75
2021/08/18 07:37:02;;;;;;;1999.90;999.90;;;;;;;11.42;52.85;100846.38;5062250;27;97256;-76
2021/08/18 07:39:30;;;;;;;1999.90;999.90;;;;;;;11.44;52.80;100839.31;5062123;27;99009;-78
2021/08/18 07:41:57;;;;;;;1999.90;999.90;;;;;;;11.47;52.65;100844.72;5062712;27;97783;-74
2021/08/18 07:44:25;;;;;;;1999.90;999.90;;;;;;;11.52;52.43;100854.59;5063564;27;96827;-74
2021/08/18 07:46:54;;;;;;;1999.90;999.90;;;;;;;11.56;52.30;100855.56;5063137;27;97986;-74
2021/08/18 07:49:22;;;;;;;1999.90;999.90;;;;;;;11.57;52.56;100852.91;5064334;27;98391;-75
2021/08/18 07:51:49;;;;;;;1999.90;999.90;;;;;;;11.57;52.43;100852.91;5061411;27;96989;-74
2021/08/18 07:54:17;;;;;;;1999.90;999.90;;;;;;;11.64;52.14;100859.22;5064363;27;97076;-75
2021/08/18 07:56:45;;;;;;;1999.90;999.90;;;;;;;11.67;52.04;100849.53;5065410;27;97438;-74
2021/08/18 07:59:13;;;;;;;1999.90;999.90;;;;;;;11.73;51.91;100859.41;5046047;27;99404;-74
2021/08/18 08:01:42;;;;;;;1999.90;999.90;;;;;;;11.73;52.07;100862.97;5062920;27;97624;-75
2021/08/18 08:04:11;;;;;;;1999.90;999.90;;;;;;;11.72;52.05;100861.19;5059496;27;96814;-74
2021/08/18 08:06:39;;;;;;;1999.90;999.90;;;;;;;11.77;52.08;100853.25;5064057;27;97271;-74
2021/08/18 08:09:06;;;;;;;1999.90;999.90;;;;;;;11.81;51.93;100856.00;5046849;27;100305;-73
2021/08/18 08:11:34;;;;;;;1999.90;999.90;;;;;;;11.86;51.77;100864.97;5055884;27;100954;-74
2021/08/18 08:14:02;;;;;;;1999.90;999.90;;;;;;;11.89;51.63;100865.03;5059449;27;97178;-74
2021/08/18 08:16:30;;;;;;;1999.90;999.90;;;;;;;11.91;51.53;100881.94;5060919;27;97960;-77
2021/08/18 08:18:58;;;;;;;1999.90;999.90;;;;;;;11.89;51.48;100859.69;5061837;27;100528;-74
2021/08/18 08:21:27;;;;;;;1999.90;999.90;;;;;;;11.93;51.39;100863.31;5061313;27;97730;-74
2021/08/18 08:23:55;;;;;;;1999.90;999.90;;;;;;;11.96;51.24;100850.03;5057897;27;97973;-74
2021/08/18 08:26:23;;;;;;;1999.90;999.90;;;;;;;12.00;51.14;100847.44;5044230;27;97537;-75
2021/08/18 08:28:51;;;;;;;1999.90;999.90;;;;;;;12.06;50.88;100849.31;5064142;27;98758;-76
2021/08/18 08:31:19;;;;;;;1999.90;999.90;;;;;;;12.13;50.72;100851.19;5062796;27;99604;-76
2021/08/18 08:33:47;;;;;;;1999.90;999.90;;;;;;;12.17;50.52;100861.97;5063552;27;98092;-75
2021/08/18 08:36:14;;;;;;;1999.90;999.90;;;;;;;12.23;50.47;100846.94;5065490;27;97726;-74
2021/08/18 08:38:43;;;;;;;1999.90;999.90;;;;;;;12.26;50.22;100845.22;5061717;27;99273;-74
2021/08/18 08:41:11;;;;;;;1999.90;999.90;;;;;;;12.36;50.33;100846.25;5063356;27;101005;-76
2021/08/18 08:43:41;;;;;;;1999.90;999.90;;;;;;;12.40;49.92;100846.31;5063002;27;96901;-74
2021/08/18 08:46:09;;;;;;;1999.90;999.90;;;;;;;12.47;49.95;100836.63;5064623;27;97595;-74
2021/08/18 08:48:39;;;;;;;1999.90;999.90;;;;;;;12.53;49.40;100834.06;5046234;27;99696;-75
2021/08/18 08:51:07;;;;;;;1999.90;999.90;;;;;;;12.57;49.19;100828.78;5060874;27;98612;-74
2021/08/18 08:53:36;;;;;;;1999.90;999.90;;;;;;;12.62;48.83;100839.53;5061504;27;98864;-76
2021/08/18 08:56:07;;;;;;;1999.90;999.90;;;;;;;12.66;48.06;100834.22;5061732;27;96918;-74
2021/08/18 08:58:36;;;;;;;1999.90;999.90;;;;;;;12.70;48.52;100849.41;5063339;27;98837;-74
2021/08/18 09:01:05;;;;;;;1999.90;999.90;;;;;;;12.73;48.32;100829.88;5065616;27;98503;-74
2021/08/18 09:03:35;;;;;;;1999.90;999.90;;;;;;;12.76;48.16;100829.91;5062274;27;98078;-75
2021/08/18 09:06:06;;;;;;;1999.90;999.90;;;;;;;12.83;47.87;100827.34;5063866;27;96976;-75
2021/08/18 09:08:47;;;;;;;1999.90;999.90;;;;;;;12.95;47.13;100837.25;5056926;27;97714;-74
2021/08/18 09:11:19;;;;;;;1999.90;999.90;;;;;;;13.05;47.65;100821.44;5057123;27;99502;-76
2021/08/18 09:13:48;;;;;;;1999.90;999.90;;;;;;;13.13;47.33;100848.19;5062301;27;98184;-75
2021/08/18 09:16:18;;;;;;;1999.90;999.90;;;;;;;13.15;47.21;100841.09;5062464;27;97164;-75
2021/08/18 09:18:47;;;;;;;1999.90;999.90;;;;;;;13.14;47.10;100833.97;5063515;27;98952;-74
2021/08/18 09:21:30;;;;;;;1999.90;999.90;;;;;;;13.12;44.52;100836.63;5063045;27;99403;-75
2021/08/18 09:24:23;;;;;;;1999.90;999.90;;;;;;;13.14;45.71;100842.00;5046463;27;97031;-78
2021/08/18 09:26:54;;;;;;;1999.90;999.90;;;;;;;13.13;46.26;100835.75;5035211;27;97339;-77
2021/08/18 09:29:26;;;;;;;1999.90;999.90;;;;;;;13.15;46.94;100838.44;5056735;27;98990;-76
2021/08/18 09:31:55;;;;;;;1999.90;999.90;;;;;;;13.17;47.01;100836.69;5062175;27;98427;-75
2021/08/18 09:34:22;;;;;;;1999.90;999.90;;;;;;;13.15;46.99;100830.41;5064479;27;96904;-74
2021/08/18 09:36:50;;;;;;;1999.90;999.90;;;;;;;13.17;47.14;100830.47;5059500;27;97842;-75
2021/08/18 09:39:20;;;;;;;1999.90;999.90;;;;;;;13.18;47.13;100825.13;5064440;27;97617;-74
2021/08/18 09:41:48;;;;;;;1999.90;999.90;;;;;;;13.20;47.07;100822.47;5064832;27;97716;-74
2021/08/18 09:44:17;;;;;;;1999.90;999.90;;;;;;;13.21;46.58;100817.13;5044899;27;96827;-74
2021/08/18 09:46:46;;;;;;;1999.90;999.90;;;;;;;13.24;46.76;100825.16;5064623;27;96754;-73
2021/08/18 09:49:14;;;;;;;1999.90;999.90;;;;;;;13.30;46.64;100819.00;5046864;27;97793;-74
2021/08/18 09:51:43;;;;;;;1999.90;999.90;;;;;;;13.34;46.54;100820.84;5067978;27;98720;-74
2021/08/18 09:54:13;;;;;;;1999.90;999.90;;;;;;;13.38;46.51;100814.63;5048901;27;99856;-74
2021/08/18 09:56:42;;;;;;;1999.90;999.90;;;;;;;13.39;46.53;100822.66;5065947;27;97471;-74
2021/08/18 09:59:10;;;;;;;1999.90;999.90;;;;;;;13.46;46.47;100821.84;5063553;27;98887;-74
2021/08/18 10:01:41;;;;;;;1999.90;999.90;;;;;;;13.47;45.77;100810.28;5057891;27;100574;-76
2021/08/18 10:04:09;;;;;;;1999.90;999.90;;;;;;;13.51;46.24;100813.88;5066265;27;97474;-78
2021/08/18 10:06:37;;;;;;;1999.90;999.90;;;;;;;13.50;46.23;100847.72;5065441;27;97885;-73
2021/08/18 10:09:05;;;;;;;1999.90;999.90;;;;;;;13.47;46.24;100823.66;5060477;27;97762;-75
2021/08/18 10:11:33;;;;;;;1999.90;999.90;;;;;;;13.46;46.19;100826.31;5065789;27;97528;-74
2021/08/18 10:14:01;;;;;;;1999.90;999.90;;;;;;;13.45;46.16;100836.09;5046136;27;97256;-74
2021/08/18 10:16:31;;;;;;;1999.90;999.90;;;;;;;13.49;46.17;100816.56;5046057;27;96720;-78
2021/08/18 10:19:05;;;;;;;1999.90;999.90;;;;;;;13.47;45.47;100812.97;5061425;27;98738;-74
2021/08/18 10:21:33;;;;;;;1999.90;999.90;;;;;;;13.49;46.18;100819.22;5049428;27;100591;-74
2021/08/18 10:24:04;;;;;;;1999.90;999.90;;;;;;;13.49;46.09;100819.22;5058419;27;98246;-75
2021/08/18 10:26:48;;;;;;;1999.90;999.90;;;;;;;13.48;45.45;100813.84;5064433;27;96950;-74
2021/08/18 10:29:19;;;;;;;1999.90;999.90;;;;;;;13.52;46.06;100823.69;5046952;27;99894;-74
2021/08/18 10:31:57;;;;;;;1999.90;999.90;;;;;;;13.49;45.35;100819.22;5046068;27;98114;-74
2021/08/18 10:34:35;;;;;;;1999.90;999.90;;;;;;;13.56;45.85;100821.06;5064633;27;96784;-72
2021/08/18 10:37:05;;;;;;;1999.90;999.90;;;;;;;13.61;46.11;100822.00;5060057;27;98175;-72
2021/08/18 10:39:38;;;;;;;1999.90;999.90;;;;;;;13.65;45.37;100818.47;5065219;27;97210;-74
2021/08/18 10:42:11;;;;;;;1999.90;999.90;;;;;;;13.69;45.85;100819.41;5081361;27;100939;-72
2021/08/18 10:44:40;;;;;;;1999.90;999.90;;;;;;;13.73;45.79;100815.88;5065341;27;97284;-72
2021/08/18 10:47:13;;;;;;;1999.90;999.90;;;;;;;13.71;45.34;100820.31;5064743;27;97019;-73
2021/08/18 10:49:43;;;;;;;1999.90;999.90;;;;;;;13.77;45.92;100817.72;5065354;27;97749;-73
2021/08/18 10:52:11;;;;;;;1999.90;999.90;;;;;;;13.76;45.82;100814.13;5064614;27;98673;-75
2021/08/18 10:54:40;;;;;;;1999.90;999.90;;;;;;;13.78;45.88;100820.38;5063414;27;98157;-72
2021/08/18 10:57:39;;;;;;;1999.90;999.90;;;;;;;13.76;45.29;100848.00;5049383;27;97751;-73